Time;durP1;ratioP1;P1;durP2;ratioP2;P2;SDS_P1;SDS_P2;PMS_P1;PMS_P2;Temp;Humidity;BMP_temperature;BMP_pressure;BME280_temperature;BME280_humidity;BME280_pressure;Samples;Min_cycle;Max_cycle;Signal;HPM_P1;HPM_P2
2021/05/03 00:01:48;;;;;;;5.80;3.70;;;4.70;99.90;;;;;;5053092;28;20841;-79
2021/05/03 00:04:14;;;;;;;7.20;3.87;;;4.80;99.90;;;;;;5053496;28;20198;-79
2021/05/03 00:06:40;;;;;;;8.17;4.13;;;4.80;99.90;;;;;;5053572;28;20237;-79
2021/05/03 00:09:07;;;;;;;5.83;4.20;;;4.70;99.90;;;;;;5053644;28;20296;-79
2021/05/03 00:11:34;;;;;;;6.87;4.33;;;4.70;99.90;;;;;;5053837;28;20647;-79
2021/05/03 00:14:00;;;;;;;8.53;3.90;;;4.70;99.90;;;;;;5053015;28;20222;-79
2021/05/03 00:16:27;;;;;;;7.97;3.50;;;4.50;99.90;;;;;;5048942;28;20203;-79
2021/05/03 00:18:54;;;;;;;7.33;4.13;;;4.60;99.90;;;;;;5053074;28;20726;-79
2021/05/03 00:21:21;;;;;;;9.37;4.10;;;4.60;99.90;;;;;;5053535;28;20258;-79
2021/05/03 00:23:48;;;;;;;6.73;4.13;;;4.50;99.90;;;;;;5053246;28;20230;-79
2021/05/03 00:26:14;;;;;;;6.73;4.43;;;4.50;99.90;;;;;;5053289;28;20201;-79
2021/05/03 00:28:41;;;;;;;7.17;4.63;;;4.60;99.90;;;;;;5053003;28;20263;-79
2021/05/03 00:31:07;;;;;;;6.73;4.97;;;4.60;99.90;;;;;;5053249;28;20320;-79
2021/05/03 00:33:34;;;;;;;8.00;4.60;;;4.60;99.90;;;;;;5052581;28;20212;-80
2021/05/03 00:36:02;;;;;;;7.53;4.70;;;4.50;99.90;;;;;;5053011;28;20259;-79
2021/05/03 00:38:30;;;;;;;10.57;5.00;;;4.50;99.90;;;;;;5053281;28;20614;-79
2021/05/03 00:40:57;;;;;;;11.43;5.03;;;4.50;99.90;;;;;;5053049;28;20206;-79
2021/05/03 00:43:23;;;;;;;9.03;5.20;;;4.40;99.90;;;;;;5053150;28;20224;-79
2021/05/03 00:45:50;;;;;;;6.83;5.17;;;4.30;99.90;;;;;;5052700;28;20262;-79
2021/05/03 00:48:16;;;;;;;9.40;5.23;;;4.20;99.90;;;;;;5052779;28;20677;-79
2021/05/03 00:50:43;;;;;;;10.20;5.63;;;4.30;99.90;;;;;;5052778;28;20190;-79
2021/05/03 00:53:11;;;;;;;9.27;5.00;;;4.20;99.90;;;;;;5053286;28;20201;-79
2021/05/03 00:55:38;;;;;;;7.40;5.30;;;4.10;99.90;;;;;;5052511;28;20586;-79
2021/05/03 00:58:05;;;;;;;12.00;5.70;;;4.00;99.90;;;;;;5052814;28;20652;-79
2021/05/03 01:00:33;;;;;;;13.80;5.67;;;4.10;99.90;;;;;;5052864;28;20292;-79
2021/05/03 01:03:00;;;;;;;8.07;5.33;;;4.00;99.90;;;;;;5052449;28;20277;-79
2021/05/03 01:05:28;;;;;;;16.23;5.63;;;4.10;99.90;;;;;;5052897;28;20213;-79
2021/05/03 01:07:54;;;;;;;10.33;5.90;;;4.10;99.90;;;;;;5052607;28;20252;-79
2021/05/03 01:10:22;;;;;;;12.30;5.80;;;4.00;99.90;;;;;;5052547;28;20197;-79
2021/05/03 01:12:49;;;;;;;14.70;5.77;;;4.00;99.90;;;;;;5052650;28;20193;-79
2021/05/03 01:15:22;;;;;;;10.10;5.60;;;4.00;99.90;;;;;;5052313;28;20229;-79
2021/05/03 01:17:55;;;;;;;11.60;5.57;;;3.90;99.90;;;;;;5052569;28;20207;-79
2021/05/03 01:20:22;;;;;;;9.80;5.30;;;3.90;99.90;;;;;;5052557;28;20292;-79
2021/05/03 01:22:51;;;;;;;10.57;6.13;;;3.90;99.90;;;;;;5052136;28;20206;-79
2021/05/03 01:25:17;;;;;;;9.77;5.00;;;3.90;99.90;;;;;;5051997;28;20629;-79
2021/05/03 01:27:45;;;;;;;12.67;5.70;;;3.90;99.90;;;;;;5052156;28;20726;-79
2021/05/03 01:30:12;;;;;;;10.03;5.57;;;3.90;99.90;;;;;;5051980;28;20273;-79
2021/05/03 01:32:39;;;;;;;13.03;6.03;;;3.80;99.90;;;;;;5052145;28;20209;-79
2021/05/03 01:35:07;;;;;;;8.67;5.80;;;3.80;99.90;;;;;;5052037;28;20267;-79
2021/05/03 01:37:33;;;;;;;10.97;5.83;;;3.80;99.90;;;;;;5052335;28;20254;-79
2021/05/03 01:40:00;;;;;;;11.53;5.83;;;3.80;99.90;;;;;;5051325;28;20281;-79
2021/05/03 01:42:27;;;;;;;14.50;6.00;;;3.80;99.90;;;;;;5051914;28;20282;-80
2021/05/03 01:44:58;;;;;;;9.33;5.50;;;3.80;99.90;;;;;;5052104;28;20189;-79
2021/05/03 01:47:25;;;;;;;9.80;5.33;;;3.70;99.90;;;;;;5052096;28;20236;-79
2021/05/03 01:49:51;;;;;;;8.60;5.90;;;3.60;99.90;;;;;;5051908;28;20198;-79
2021/05/03 01:52:18;;;;;;;8.33;5.57;;;3.60;99.90;;;;;;5051473;28;20239;-79
2021/05/03 01:54:45;;;;;;;10.73;5.47;;;3.60;99.90;;;;;;5051653;28;20304;-79
2021/05/03 01:57:12;;;;;;;8.90;5.50;;;3.60;99.90;;;;;;5051422;28;20216;-79
2021/05/03 01:59:39;;;;;;;16.47;6.03;;;3.70;99.90;;;;;;5052022;28;20290;-80
2021/05/03 02:02:06;;;;;;;13.50;5.43;;;3.70;99.90;;;;;;5051524;28;20255;-79
2021/05/03 02:04:32;;;;;;;9.10;5.13;;;3.60;99.90;;;;;;5051534;28;20655;-79
2021/05/03 02:06:59;;;;;;;8.73;5.87;;;3.70;99.90;;;;;;5051797;28;20221;-79
2021/05/03 02:09:25;;;;;;;9.87;5.23;;;3.80;99.90;;;;;;5051548;28;20301;-79
2021/05/03 02:11:51;;;;;;;11.10;5.03;;;3.80;99.90;;;;;;5051580;28;20671;-79
2021/05/03 02:14:19;;;;;;;9.47;5.07;;;3.80;99.90;;;;;;5051384;28;20275;-79
2021/05/03 02:16:45;;;;;;;8.53;5.07;;;3.70;99.90;;;;;;5051492;28;20655;-79
2021/05/03 02:19:12;;;;;;;7.30;4.90;;;3.80;99.90;;;;;;5051299;28;20610;-79
2021/05/03 02:21:38;;;;;;;6.90;4.83;;;3.80;99.90;;;;;;5051506;28;20204;-79
2021/05/03 02:24:06;;;;;;;9.63;5.50;;;3.80;99.90;;;;;;5051170;28;20309;-79
2021/05/03 02:26:32;;;;;;;8.60;4.87;;;3.80;99.90;;;;;;5051657;28;20201;-79
2021/05/03 02:28:58;;;;;;;7.77;5.20;;;3.90;99.90;;;;;;5051538;28;20197;-79
2021/05/03 02:31:26;;;;;;;9.00;5.57;;;3.90;99.90;;;;;;5051243;28;20301;-79
2021/05/03 02:33:52;;;;;;;11.80;5.43;;;3.90;99.90;;;;;;5051197;28;20728;-79
2021/05/03 02:36:19;;;;;;;10.70;5.83;;;3.90;99.90;;;;;;5051274;28;20728;-79
2021/05/03 02:38:45;;;;;;;11.67;5.43;;;3.90;99.90;;;;;;5050971;28;20296;-79
2021/05/03 02:41:12;;;;;;;9.00;5.30;;;4.00;99.90;;;;;;5051353;28;20293;-79
2021/05/03 02:43:38;;;;;;;7.63;5.07;;;4.00;99.90;;;;;;5051125;28;20206;-79
2021/05/03 02:46:05;;;;;;;7.30;5.03;;;3.90;99.90;;;;;;5051343;28;20671;-79
2021/05/03 02:48:33;;;;;;;10.50;5.33;;;3.90;99.90;;;;;;5051319;28;20206;-79
2021/05/03 02:50:59;;;;;;;10.33;5.50;;;3.80;99.90;;;;;;5051697;28;20221;-79
2021/05/03 02:53:25;;;;;;;11.00;4.93;;;3.70;99.90;;;;;;5055184;28;20204;-79
2021/05/03 02:55:52;;;;;;;9.20;4.80;;;3.70;99.90;;;;;;5054826;28;20588;-79
2021/05/03 02:58:18;;;;;;;8.97;5.00;;;3.70;99.90;;;;;;5054965;28;20206;-79
2021/05/03 03:00:44;;;;;;;8.40;4.80;;;3.70;99.90;;;;;;5055186;28;20357;-79
2021/05/03 03:03:11;;;;;;;9.37;4.93;;;3.70;99.90;;;;;;5054972;28;20212;-79
2021/05/03 03:05:38;;;;;;;11.30;5.13;;;3.80;99.90;;;;;;5054643;28;20308;-79
2021/05/03 03:08:05;;;;;;;10.00;5.30;;;3.90;99.90;;;;;;5054764;28;20328;-79
2021/05/03 03:10:32;;;;;;;10.03;5.60;;;3.90;99.90;;;;;;5054907;28;20232;-79
2021/05/03 03:13:00;;;;;;;7.07;4.30;;;4.00;99.90;;;;;;5054758;28;20631;-79
2021/05/03 03:15:30;;;;;;;9.07;4.57;;;4.00;99.90;;;;;;5054893;28;20218;-79
2021/05/03 03:17:56;;;;;;;8.43;4.83;;;4.00;99.90;;;;;;5054597;28;20198;-79
2021/05/03 03:20:23;;;;;;;8.60;4.90;;;4.10;99.90;;;;;;5054488;28;20214;-79
2021/05/03 03:22:50;;;;;;;9.77;4.23;;;4.20;99.90;;;;;;5054638;28;20202;-79
2021/05/03 03:25:17;;;;;;;10.43;5.10;;;4.20;99.90;;;;;;5054540;28;20206;-79
2021/05/03 03:27:45;;;;;;;7.60;4.97;;;4.30;99.90;;;;;;5055264;28;20209;-79
2021/05/03 03:30:13;;;;;;;10.00;4.60;;;4.30;99.90;;;;;;5054353;28;20234;-80
2021/05/03 03:32:43;;;;;;;7.13;4.60;;;4.50;99.90;;;;;;5054104;28;20813;-79
2021/05/03 03:35:11;;;;;;;9.97;4.93;;;4.60;99.90;;;;;;5054019;28;20248;-79
2021/05/03 03:37:37;;;;;;;7.77;4.83;;;4.60;99.90;;;;;;5054564;28;21005;-79
2021/05/03 03:40:06;;;;;;;11.60;4.57;;;4.60;99.90;;;;;;5054353;28;20230;-79
2021/05/03 03:42:33;;;;;;;9.13;4.73;;;4.60;99.90;;;;;;5054535;28;20196;-79
2021/05/03 03:44:59;;;;;;;9.67;4.83;;;4.60;99.90;;;;;;5053969;28;20558;-78
2021/05/03 03:47:26;;;;;;;8.00;4.50;;;4.70;99.90;;;;;;5053972;28;20209;-79
2021/05/03 03:49:52;;;;;;;6.93;4.30;;;4.80;99.90;;;;;;5054409;28;20201;-79
2021/05/03 03:52:19;;;;;;;11.97;4.77;;;4.70;99.90;;;;;;5054102;28;20205;-79
2021/05/03 03:54:46;;;;;;;10.47;4.93;;;4.80;99.90;;;;;;5054107;28;20696;-78
2021/05/03 03:57:13;;;;;;;8.97;3.90;;;4.80;99.90;;;;;;5054114;28;20225;-79
2021/05/03 03:59:41;;;;;;;8.40;4.23;;;4.80;99.90;;;;;;5054018;28;20619;-79
2021/05/03 04:02:08;;;;;;;11.10;4.87;;;4.70;99.90;;;;;;5053314;28;20208;-79
2021/05/03 04:04:36;;;;;;;7.07;4.70;;;4.70;99.90;;;;;;5054183;28;20292;-79
2021/05/03 04:07:08;;;;;;;7.73;4.20;;;4.70;99.90;;;;;;5053647;28;20606;-78
2021/05/03 04:09:40;;;;;;;9.20;4.50;;;4.80;99.90;;;;;;5053792;28;20233;-80
2021/05/03 04:23:34;;;;;;;10.63;4.40;;;5.30;99.90;;;;;;5049871;28;20220;-79
2021/05/03 04:26:00;;;;;;;7.93;5.30;;;5.40;99.90;;;;;;5047766;28;20659;-79
2021/05/03 04:28:27;;;;;;;10.00;4.83;;;5.40;99.90;;;;;;5048175;28;20206;-79
2021/05/03 04:30:54;;;;;;;13.70;4.87;;;5.40;99.90;;;;;;5047859;28;20291;-79
2021/05/03 04:33:20;;;;;;;7.10;5.03;;;5.50;99.90;;;;;;5045166;28;20222;-79
2021/05/03 04:35:47;;;;;;;9.03;4.90;;;5.50;99.90;;;;;;5047643;28;20225;-79
2021/05/03 04:38:13;;;;;;;8.07;4.80;;;5.50;99.90;;;;;;5047922;28;20208;-79
2021/05/03 04:40:43;;;;;;;10.17;5.03;;;5.60;99.90;;;;;;5053307;28;20194;-80
2021/05/03 04:43:10;;;;;;;10.47;4.70;;;5.70;99.90;;;;;;5053227;28;20197;-79
2021/05/03 04:45:36;;;;;;;8.93;5.50;;;5.70;99.90;;;;;;5050163;28;20654;-79
2021/05/03 04:48:04;;;;;;;8.03;5.20;;;5.70;99.90;;;;;;5046676;28;20194;-78
2021/05/03 04:50:31;;;;;;;8.53;5.17;;;5.60;99.90;;;;;;5045883;28;20610;-79
2021/05/03 04:52:57;;;;;;;10.10;5.17;;;5.60;99.90;;;;;;5053344;28;20566;-79
2021/05/03 04:55:24;;;;;;;8.97;5.20;;;5.60;99.90;;;;;;5052470;28;20373;-79
2021/05/03 04:57:50;;;;;;;12.37;5.20;;;5.60;99.90;;;;;;5052747;28;20292;-79
2021/05/03 05:00:17;;;;;;;12.13;5.17;;;5.80;99.90;;;;;;5044304;28;20573;-79
2021/05/03 05:02:44;;;;;;;9.53;5.23;;;6.00;99.90;;;;;;5043090;28;20203;-79
2021/05/03 05:05:12;;;;;;;10.33;5.90;;;6.10;99.90;;;;;;5043099;28;20665;-79
2021/05/03 05:07:39;;;;;;;8.27;5.70;;;6.30;99.90;;;;;;5042422;28;20283;-79
2021/05/03 05:10:08;;;;;;;12.03;6.13;;;6.50;99.90;;;;;;5044245;28;20237;-79
2021/05/03 05:12:35;;;;;;;11.07;6.30;;;6.60;99.90;;;;;;5042008;28;20287;-78
2021/05/03 05:15:01;;;;;;;9.97;6.17;;;6.70;99.90;;;;;;5042698;28;20233;-78
2021/05/03 05:17:28;;;;;;;13.77;6.37;;;6.70;99.90;;;;;;5046915;28;20205;-78
2021/05/03 05:19:55;;;;;;;11.20;6.50;;;6.80;99.90;;;;;;5043829;28;20186;-78
2021/05/03 05:22:22;;;;;;;11.63;6.93;;;6.90;99.90;;;;;;5041948;28;20199;-78
2021/05/03 05:24:48;;;;;;;11.93;6.90;;;6.90;99.90;;;;;;5043981;28;20194;-78
2021/05/03 05:27:15;;;;;;;12.20;6.80;;;7.00;99.90;;;;;;5045975;28;20198;-78
2021/05/03 05:29:41;;;;;;;14.37;7.27;;;7.10;99.90;;;;;;5044957;28;20631;-78
2021/05/03 05:32:07;;;;;;;13.03;7.70;;;7.30;99.90;;;;;;5035524;28;20217;-78
2021/05/03 05:34:34;;;;;;;13.77;7.57;;;7.60;99.90;;;;;;5032735;28;20661;-78
2021/05/03 05:37:00;;;;;;;10.70;7.13;;;8.20;99.90;;;;;;5032742;28;20204;-78
2021/05/03 05:39:28;;;;;;;12.50;6.90;;;8.90;99.90;;;;;;5032991;28;20204;-78
2021/05/03 05:41:54;;;;;;;17.40;7.60;;;9.60;99.90;;;;;;5031794;28;20248;-78
2021/05/03 05:44:21;;;;;;;10.80;6.67;;;10.20;99.90;;;;;;5032605;28;20554;-78
2021/05/03 05:46:48;;;;;;;13.67;7.30;;;10.70;99.90;;;;;;5052458;28;20234;-78
2021/05/03 05:49:16;;;;;;;15.33;7.80;;;10.90;99.90;;;;;;5072810;28;20195;-76
2021/05/03 05:51:42;;;;;;;15.77;8.13;;;10.80;99.90;;;;;;5073161;28;20643;-78
2021/05/03 05:54:09;;;;;;;12.83;8.07;;;10.70;99.90;;;;;;5072427;28;20562;-79
2021/05/03 05:56:36;;;;;;;13.10;8.53;;;10.50;99.90;;;;;;5073142;28;20195;-78
2021/05/03 05:59:03;;;;;;;15.53;9.13;;;10.20;99.90;;;;;;5072636;28;20238;-78
2021/05/03 06:01:29;;;;;;;15.60;9.97;;;10.20;99.90;;;;;;5072808;28;20197;-78
2021/05/03 06:03:56;;;;;;;17.83;10.00;;;10.10;99.90;;;;;;5069406;28;20686;-78
2021/05/03 06:06:22;;;;;;;17.60;10.30;;;10.00;99.90;;;;;;5052873;28;20260;-79
2021/05/03 06:08:48;;;;;;;18.40;10.47;;;10.00;99.90;;;;;;5052896;28;20244;-83
2021/05/03 06:11:15;;;;;;;17.53;10.40;;;9.90;99.90;;;;;;5052926;28;20290;-80
2021/05/03 06:13:43;;;;;;;17.20;10.63;;;10.10;99.90;;;;;;5053669;28;20196;-79
2021/05/03 06:16:09;;;;;;;19.07;10.97;;;10.20;99.90;;;;;;5071586;28;20227;-76
2021/05/03 06:18:36;;;;;;;17.83;11.23;;;10.10;99.90;;;;;;5072438;28;20193;-76
2021/05/03 06:21:02;;;;;;;18.27;11.63;;;10.10;99.90;;;;;;5072210;28;20300;-76
2021/05/03 06:23:29;;;;;;;20.20;11.27;;;10.10;99.90;;;;;;5072679;28;20235;-76
2021/05/03 06:25:55;;;;;;;20.07;11.87;;;10.20;99.90;;;;;;5071356;28;20244;-77
2021/05/03 06:28:22;;;;;;;17.63;11.10;;;10.10;99.90;;;;;;5074546;28;20198;-78
2021/05/03 06:30:55;;;;;;;18.50;11.43;;;10.10;99.90;;;;;;5074597;28;20195;-76
2021/05/03 06:33:21;;;;;;;17.63;11.13;;;10.10;99.90;;;;;;5072786;28;20209;-76
2021/05/03 06:35:47;;;;;;;16.10;11.27;;;10.10;99.90;;;;;;5073472;28;20226;-77
2021/05/03 06:38:14;;;;;;;17.50;11.10;;;10.10;99.90;;;;;;5075188;28;20209;-79
2021/05/03 06:40:40;;;;;;;15.13;11.10;;;10.20;99.90;;;;;;5076559;28;20193;-77
2021/05/03 06:43:07;;;;;;;18.23;11.63;;;10.40;99.90;;;;;;5076812;28;20614;-77
2021/05/03 06:45:34;;;;;;;17.43;11.57;;;10.50;99.90;;;;;;5076522;28;20690;-77
2021/05/03 06:48:02;;;;;;;18.90;11.57;;;10.50;99.90;;;;;;5077017;28;20193;-77
2021/05/03 06:50:29;;;;;;;20.77;12.87;;;10.40;99.90;;;;;;5076686;28;20196;-77
2021/05/03 06:52:55;;;;;;;17.50;12.47;;;10.50;99.90;;;;;;5076592;28;20252;-77
2021/05/03 06:55:22;;;;;;;17.70;12.47;;;10.70;99.90;;;;;;5061750;28;20218;-77
2021/05/03 06:57:48;;;;;;;22.00;13.77;;;10.70;99.90;;;;;;5044882;28;20196;-77
2021/05/03 07:00:16;;;;;;;23.40;14.33;;;10.60;99.90;;;;;;5046828;28;20257;-77
2021/05/03 07:02:43;;;;;;;24.30;14.93;;;10.60;99.90;;;;;;5045492;28;20201;-76
2021/05/03 07:05:12;;;;;;;24.27;14.97;;;10.60;99.90;;;;;;5044882;28;20192;-79
2021/05/03 07:07:39;;;;;;;24.60;14.57;;;10.60;99.90;;;;;;5044660;28;20249;-77
2021/05/03 07:10:06;;;;;;;25.40;15.73;;;10.60;99.90;;;;;;5046258;28;20210;-77
2021/05/03 07:12:35;;;;;;;22.23;15.40;;;10.50;99.90;;;;;;5044372;28;20257;-76
2021/05/03 07:15:02;;;;;;;23.93;15.57;;;10.50;99.90;;;;;;5043799;28;20230;-77
2021/05/03 07:17:28;;;;;;;25.50;15.57;;;10.60;99.90;;;;;;5045565;28;20659;-76
2021/05/03 07:19:55;;;;;;;24.87;16.37;;;10.60;99.90;;;;;;5046397;28;20282;-77
2021/05/03 07:22:23;;;;;;;25.50;15.13;;;10.70;99.90;;;;;;5044226;28;20278;-77
2021/05/03 07:24:50;;;;;;;23.20;15.93;;;10.70;99.90;;;;;;5045507;28;20199;-76
2021/05/03 07:27:17;;;;;;;27.87;16.03;;;10.90;99.90;;;;;;5046008;28;20208;-77
2021/05/03 07:29:43;;;;;;;29.60;15.80;;;10.80;99.90;;;;;;5043985;28;20729;-77
2021/05/03 07:32:10;;;;;;;21.70;15.03;;;10.90;99.90;;;;;;5044389;28;20570;-76
2021/05/03 07:34:37;;;;;;;23.47;14.93;;;10.90;99.90;;;;;;5045505;28;20639;-76
2021/05/03 07:37:05;;;;;;;23.23;15.13;;;10.90;99.90;;;;;;5042994;28;20562;-79
2021/05/03 07:39:33;;;;;;;25.23;15.47;;;10.90;99.90;;;;;;5045059;28;20202;-78
2021/05/03 07:41:59;;;;;;;23.63;15.33;;;10.90;99.90;;;;;;5045747;28;20204;-77
2021/05/03 07:44:26;;;;;;;25.40;15.00;;;10.90;99.90;;;;;;5043897;28;20201;-76
2021/05/03 07:46:53;;;;;;;26.30;16.20;;;11.00;99.90;;;;;;5045700;28;20202;-76
2021/05/03 07:49:20;;;;;;;24.07;15.10;;;11.10;99.90;;;;;;5045880;28;20190;-76
2021/05/03 07:51:46;;;;;;;21.77;14.93;;;11.40;99.90;;;;;;5044513;28;20282;-76
2021/05/03 07:54:15;;;;;;;22.23;14.43;;;11.50;99.90;;;;;;5044119;28;20207;-76
2021/05/03 07:56:43;;;;;;;21.80;14.20;;;11.80;99.90;;;;;;5045988;28;20196;-77
2021/05/03 07:59:09;;;;;;;22.20;14.60;;;12.00;99.90;;;;;;5045172;28;20249;-77
2021/05/03 08:01:36;;;;;;;18.63;13.70;;;12.80;99.90;;;;;;5043628;28;20197;-77
2021/05/03 08:04:03;;;;;;;21.70;13.93;;;13.90;99.90;;;;;;5045020;28;20652;-77
2021/05/03 08:06:29;;;;;;;17.23;12.97;;;14.90;99.90;;;;;;5044830;28;20753;-77
2021/05/03 08:08:55;;;;;;;17.20;12.43;;;15.80;99.90;;;;;;5043685;28;20278;-77
2021/05/03 08:11:22;;;;;;;15.10;12.90;;;17.10;99.90;;;;;;5045014;28;20192;-77
2021/05/03 08:13:49;;;;;;;16.03;12.57;;;18.00;99.90;;;;;;5044803;28;20200;-77
2021/05/03 08:16:18;;;;;;;15.10;12.50;;;19.00;99.90;;;;;;5043258;28;20213;-76
2021/05/03 08:18:44;;;;;;;17.87;12.53;;;18.60;99.90;;;;;;5044358;28;20192;-77
2021/05/03 08:21:11;;;;;;;16.07;12.60;;;18.50;99.90;;;;;;5045149;28;20193;-76
2021/05/03 08:23:38;;;;;;;20.50;13.07;;;18.40;99.90;;;;;;5043291;28;20199;-76
2021/05/03 08:26:04;;;;;;;17.73;12.90;;;18.10;99.90;;;;;;5044333;28;20207;-77
2021/05/03 08:28:31;;;;;;;15.30;12.23;;;18.50;99.90;;;;;;5045221;28;20926;-77
2021/05/03 08:30:58;;;;;;;15.43;12.30;;;18.90;99.90;;;;;;5043235;28;20204;-80
2021/05/03 08:33:24;;;;;;;16.27;12.30;;;19.20;99.90;;;;;;5045103;28;20205;-77
2021/05/03 08:35:51;;;;;;;15.27;11.97;;;19.10;99.90;;;;;;5046727;28;20248;-77
2021/05/03 08:38:19;;;;;;;15.57;12.40;;;19.10;99.90;;;;;;5046460;28;20639;-77
2021/05/03 08:40:45;;;;;;;17.67;12.73;;;19.40;99.90;;;;;;5048703;28;20189;-77
2021/05/03 08:43:12;;;;;;;18.93;13.00;;;19.60;99.90;;;;;;5051011;28;20534;-77
2021/05/03 08:45:40;;;;;;;15.13;12.00;;;19.60;99.90;;;;;;5044448;28;20199;-76
2021/05/03 08:48:12;;;;;;;16.67;13.00;;;19.90;99.90;;;;;;5043792;28;20231;-76
2021/05/03 08:50:50;;;;;;;13.77;11.33;;;19.70;99.90;;;;;;5045628;28;20283;-76
2021/05/03 08:53:20;;;;;;;15.57;11.80;;;19.60;99.90;;;;;;5044193;28;20224;-76
2021/05/03 08:55:47;;;;;;;17.63;11.07;;;19.50;99.90;;;;;;5052866;28;20216;-77
2021/05/03 08:58:13;;;;;;;12.70;10.57;;;19.80;99.90;;;;;;5044459;28;20288;-77
2021/05/03 09:00:40;;;;;;;14.87;11.13;;;19.30;99.90;;;;;;5044738;28;20680;-77
2021/05/03 09:03:11;;;;;;;12.03;10.27;;;19.00;99.90;;;;;;5038000;28;20203;-77
2021/05/03 09:05:38;;;;;;;11.80;9.63;;;19.00;99.90;;;;;;5052077;28;20287;-76
2021/05/03 09:08:05;;;;;;;11.67;9.87;;;19.30;99.90;;;;;;5049504;28;20581;-77
2021/05/03 09:10:32;;;;;;;12.20;10.17;;;19.10;99.90;;;;;;5043883;28;20192;-77
2021/05/03 09:13:08;;;;;;;11.37;9.93;;;19.30;99.90;;;;;;5043645;28;20633;-76
2021/05/03 09:15:35;;;;;;;13.33;10.40;;;19.50;99.90;;;;;;5045587;28;20627;-77
2021/05/03 09:18:01;;;;;;;12.07;10.50;;;19.90;99.90;;;;;;5043656;28;20195;-77
2021/05/03 09:20:29;;;;;;;11.30;9.67;;;19.90;99.90;;;;;;5044841;28;20291;-77
2021/05/03 09:22:58;;;;;;;10.77;9.67;;;20.30;99.90;;;;;;5045046;28;20197;-78
2021/05/03 09:25:29;;;;;;;11.67;9.97;;;21.00;99.90;;;;;;5038545;28;20280;-77
2021/05/03 09:28:05;;;;;;;13.10;9.50;;;21.10;99.90;;;;;;5051532;28;20208;-77
2021/05/03 09:30:37;;;;;;;11.33;8.23;;;21.20;99.90;;;;;;5053385;28;20199;-78
2021/05/03 09:33:24;;;;;;;12.97;8.73;;;21.00;99.90;;;;;;5050238;28;20215;-78
2021/05/03 09:35:54;;;;;;;12.40;8.70;;;20.80;99.90;;;;;;5042772;28;20231;-77
2021/05/03 09:38:36;;;;;;;10.50;7.57;;;20.60;99.90;;;;;;5051370;28;20657;-77
2021/05/03 09:41:18;;;;;;;8.63;7.30;;;21.10;99.90;;;;;;5042713;28;20275;-78
2021/05/03 09:43:46;;;;;;;10.23;7.00;;;20.80;99.90;;;;;;5050451;28;20192;-77
2021/05/03 09:46:30;;;;;;;7.83;7.03;;;21.00;99.90;;;;;;5052680;28;20299;-78
2021/05/03 09:48:58;;;;;;;9.77;5.93;;;20.80;99.90;;;;;;5052556;28;20299;-78
2021/05/03 09:51:37;;;;;;;10.03;5.80;;;20.70;99.90;;;;;;5052661;28;20254;-77
2021/05/03 09:54:13;;;;;;;8.10;7.30;;;20.10;99.90;;;;;;5037332;28;20601;-76
2021/05/03 09:56:59;;;;;;;7.63;5.97;;;19.80;99.90;;;;;;5052692;28;20235;-77
2021/05/03 09:59:34;;;;;;;10.23;7.17;;;19.40;99.90;;;;;;5036715;28;20248;-77
2021/05/03 10:02:14;;;;;;;9.60;6.23;;;19.00;99.90;;;;;;5036620;28;20199;-78
2021/05/03 10:04:52;;;;;;;9.87;6.30;;;19.60;99.90;;;;;;5052206;28;20204;-78
2021/05/03 10:07:22;;;;;;;8.77;6.70;;;19.80;99.90;;;;;;5043891;28;20243;-78
2021/05/03 10:09:51;;;;;;;7.47;6.17;;;19.60;99.90;;;;;;5043436;28;20652;-78
2021/05/03 10:12:19;;;;;;;9.33;6.70;;;20.10;99.90;;;;;;5042478;28;20528;-77
2021/05/03 10:14:46;;;;;;;6.97;6.27;;;20.40;99.90;;;;;;5045828;28;20206;-77
2021/05/03 10:17:16;;;;;;;9.30;6.73;;;20.60;99.90;;;;;;5043028;28;20212;-77
2021/05/03 10:19:43;;;;;;;8.10;7.03;;;21.30;99.90;;;;;;5043915;28;20312;-78
2021/05/03 10:22:15;;;;;;;10.83;7.03;;;21.50;99.90;;;;;;5052496;28;20231;-77
2021/05/03 10:24:45;;;;;;;7.07;5.83;;;21.30;99.90;;;;;;5052897;28;20204;-78
2021/05/03 10:27:11;;;;;;;9.20;6.53;;;21.20;99.90;;;;;;5045869;28;20234;-77
2021/05/03 10:29:41;;;;;;;6.57;5.63;;;21.10;99.90;;;;;;5052082;28;20204;-78
2021/05/03 10:32:09;;;;;;;7.37;5.90;;;21.40;99.90;;;;;;5052336;28;20208;-78
2021/05/03 10:34:40;;;;;;;6.90;6.10;;;21.30;99.90;;;;;;5052765;28;20196;-77
2021/05/03 10:37:49;;;;;;;7.27;6.20;;;21.40;99.90;;;;;;5052854;28;20232;-78
2021/05/03 10:40:43;;;;;;;8.60;6.43;;;20.90;99.90;;;;;;5052443;28;20200;-78
2021/05/03 10:43:17;;;;;;;8.10;6.80;;;20.60;99.90;;;;;;5052233;28;20208;-77
2021/05/03 10:45:55;;;;;;;10.20;6.50;;;21.20;99.90;;;;;;5052607;28;20633;-78
2021/05/03 10:48:30;;;;;;;8.53;6.30;;;21.70;99.90;;;;;;5052210;28;20237;-78
2021/05/03 10:50:56;;;;;;;10.17;6.67;;;22.10;99.90;;;;;;5052457;28;20213;-77
2021/05/03 10:53:31;;;;;;;7.53;6.30;;;21.50;99.90;;;;;;5052128;28;20560;-78
2021/05/03 10:55:59;;;;;;;9.00;6.07;;;21.00;99.90;;;;;;5052480;28;20381;-78
2021/05/03 10:58:27;;;;;;;6.93;5.80;;;20.70;99.90;;;;;;5051957;28;20192;-77
2021/05/03 11:00:58;;;;;;;6.33;5.57;;;20.30;99.90;;;;;;5052492;28;20200;-78
2021/05/03 11:04:02;;;;;;;6.83;6.13;;;20.60;99.90;;;;;;5052383;28;20326;-77
2021/05/03 11:07:06;;;;;;;8.70;5.60;;;21.20;99.90;;;;;;5052389;28;20239;-78
2021/05/03 11:09:41;;;;;;;8.57;5.97;;;21.30;99.90;;;;;;5052410;28;20219;-79
2021/05/03 11:12:30;;;;;;;6.83;5.70;;;21.50;99.90;;;;;;5053012;28;20550;-78
2021/05/03 11:15:25;;;;;;;6.93;4.80;;;21.50;99.90;;;;;;5055531;28;20305;-78
2021/05/03 11:18:17;;;;;;;5.17;4.63;;;21.30;99.90;;;;;;5041769;28;20740;-77
2021/05/03 11:21:15;;;;;;;4.93;4.10;;;20.80;99.90;;;;;;5056106;28;20564;-78
2021/05/03 11:23:42;;;;;;;5.43;4.53;;;21.00;99.90;;;;;;4994128;28;20213;-78
2021/05/03 11:26:27;;;;;;;6.90;5.27;;;21.00;99.90;;;;;;5031912;28;20235;-77
2021/05/03 11:29:04;;;;;;;8.23;5.13;;;21.30;99.90;;;;;;5055353;28;20200;-78
2021/05/03 11:31:32;;;;;;;7.63;5.27;;;21.50;99.90;;;;;;5055782;28;20231;-78
2021/05/03 11:34:04;;;;;;;11.90;5.97;;;21.60;99.90;;;;;;5055165;28;20661;-78
2021/05/03 11:36:35;;;;;;;8.90;5.33;;;21.00;99.90;;;;;;5055649;28;20216;-78
2021/05/03 11:39:10;;;;;;;8.03;5.73;;;20.60;99.90;;;;;;5053973;28;20349;-78
2021/05/03 11:42:01;;;;;;;6.93;5.83;;;20.10;99.90;;;;;;5055148;28;20261;-77
2021/05/03 11:44:45;;;;;;;8.13;5.37;;;19.70;99.90;;;;;;5053974;28;20215;-77
2021/05/03 11:47:12;;;;;;;7.27;5.80;;;20.40;99.90;;;;;;5047328;28;20247;-78
2021/05/03 11:49:45;;;;;;;7.77;5.80;;;21.30;99.90;;;;;;5045371;28;20196;-77
2021/05/03 11:52:12;;;;;;;7.27;5.80;;;21.30;99.90;;;;;;5047768;28;20216;-77
2021/05/03 11:54:42;;;;;;;8.17;5.87;;;21.10;99.90;;;;;;5051941;28;20224;-77
2021/05/03 11:57:10;;;;;;;7.23;5.50;;;20.90;99.90;;;;;;5049309;28;20197;-77
2021/05/03 11:59:37;;;;;;;7.00;5.87;;;21.00;99.90;;;;;;5043932;28;20720;-78
2021/05/03 12:02:06;;;;;;;10.07;5.80;;;21.00;99.90;;;;;;5055325;28;20196;-77
2021/05/03 12:04:39;;;;;;;8.77;5.23;;;21.00;99.90;;;;;;5065374;28;20203;-77
2021/05/03 12:07:20;;;;;;;7.73;4.87;;;20.50;99.90;;;;;;5066630;28;20198;-77
2021/05/03 12:09:48;;;;;;;5.73;5.10;;;20.90;99.90;;;;;;5058028;28;20200;-77
2021/05/03 12:12:15;;;;;;;10.93;5.70;;;21.00;99.90;;;;;;5056295;28;20317;-77
2021/05/03 12:14:47;;;;;;;6.97;5.57;;;20.90;99.90;;;;;;5051784;28;20559;-77
2021/05/03 12:17:18;;;;;;;7.27;5.80;;;21.20;99.90;;;;;;5062816;28;20655;-77
2021/05/03 12:19:49;;;;;;;7.87;5.63;;;21.20;99.90;;;;;;5054498;28;20239;-78
2021/05/03 12:22:15;;;;;;;6.37;5.63;;;21.10;99.90;;;;;;5059936;28;20219;-77
2021/05/03 12:24:44;;;;;;;7.97;5.77;;;20.90;99.90;;;;;;5064517;28;20200;-77
2021/05/03 12:27:11;;;;;;;7.13;5.67;;;21.30;99.90;;;;;;5067744;28;20196;-78
2021/05/03 12:29:40;;;;;;;5.93;5.33;;;21.70;99.90;;;;;;5057159;28;20200;-78
2021/05/03 12:32:12;;;;;;;7.43;5.47;;;22.40;99.90;;;;;;5069785;28;20220;-77
2021/05/03 12:34:49;;;;;;;7.97;6.20;;;22.60;99.90;;;;;;5056581;28;20288;-77
2021/05/03 12:37:20;;;;;;;9.03;6.77;;;22.30;99.90;;;;;;5062109;28;20275;-77
2021/05/03 12:39:59;;;;;;;10.07;6.60;;;21.70;99.90;;;;;;5058539;28;20236;-78
2021/05/03 12:42:31;;;;;;;6.90;6.20;;;21.50;99.90;;;;;;5066952;28;20196;-78
2021/05/03 12:45:04;;;;;;;6.57;5.77;;;21.70;99.90;;;;;;5065582;28;20227;-77
2021/05/03 12:47:46;;;;;;;7.40;5.57;;;22.00;99.90;;;;;;5067110;28;20202;-77
2021/05/03 12:50:22;;;;;;;6.27;5.17;;;21.80;99.90;;;;;;5044983;28;20556;-77
2021/05/03 12:53:06;;;;;;;7.83;5.83;;;22.00;99.90;;;;;;5063716;28;20200;-78
2021/05/03 12:55:35;;;;;;;8.67;5.97;;;21.50;99.90;;;;;;5070242;28;20262;-77
2021/05/03 12:58:16;;;;;;;6.93;5.90;;;20.70;99.90;;;;;;5045700;28;20199;-77
2021/05/03 13:00:54;;;;;;;7.47;5.23;;;20.50;99.90;;;;;;5063815;28;20544;-77
2021/05/03 13:03:30;;;;;;;9.97;5.47;;;20.50;99.90;;;;;;5055614;28;20243;-79
2021/05/03 13:06:21;;;;;;;8.53;5.63;;;20.90;99.90;;;;;;5052261;28;20678;-78